sensor_id;sensor_type;location;lat;lon;timestamp;temperature;humidity
33564;DHT22;19894;48.452;11.494;2022-09-09T00:01:08;21.70;61.10
33564;DHT22;19894;48.452;11.494;2022-09-09T00:03:44;21.70;61.20
33564;DHT22;19894;48.452;11.494;2022-09-09T00:06:32;21.70;61.20
33564;DHT22;19894;48.452;11.494;2022-09-09T00:09:08;21.70;61.30
33564;DHT22;19894;48.452;11.494;2022-09-09T00:11:43;21.70;61.20
33564;DHT22;19894;48.452;11.494;2022-09-09T00:17:09;21.70;61.00
33564;DHT22;19894;48.452;11.494;2022-09-09T00:20:14;21.60;61.00
33564;DHT22;19894;48.452;11.494;2022-09-09T00:22:48;21.60;61.00
33564;DHT22;19894;48.452;11.494;2022-09-09T00:25:23;21.70;61.00
33564;DHT22;19894;48.452;11.494;2022-09-09T00:27:52;21.70;61.00
33564;DHT22;19894;48.452;11.494;2022-09-09T00:30:24;21.60;60.90
33564;DHT22;19894;48.452;11.494;2022-09-09T00:32:55;21.70;61.50
33564;DHT22;19894;48.452;11.494;2022-09-09T00:38:00;21.70;61.00
33564;DHT22;19894;48.452;11.494;2022-09-09T00:43:25;21.70;60.70
33564;DHT22;19894;48.452;11.494;2022-09-09T00:48:44;21.60;60.70
33564;DHT22;19894;48.452;11.494;2022-09-09T00:51:21;21.70;60.70
33564;DHT22;19894;48.452;11.494;2022-09-09T00:56:43;21.70;60.50
33564;DHT22;19894;48.452;11.494;2022-09-09T01:02:07;21.70;60.40
33564;DHT22;19894;48.452;11.494;2022-09-09T01:04:38;21.60;60.20
33564;DHT22;19894;48.452;11.494;2022-09-09T01:07:17;21.60;60.10
33564;DHT22;19894;48.452;11.494;2022-09-09T01:09:59;21.70;60.20
33564;DHT22;19894;48.452;11.494;2022-09-09T01:12:43;21.60;60.20
33564;DHT22;19894;48.452;11.494;2022-09-09T01:15:20;21.60;60.20
33564;DHT22;19894;48.452;11.494;2022-09-09T01:18:06;21.60;60.00
33564;DHT22;19894;48.452;11.494;2022-09-09T01:20:47;21.60;59.90
33564;DHT22;19894;48.452;11.494;2022-09-09T01:23:47;21.60;60.00
33564;DHT22;19894;48.452;11.494;2022-09-09T01:26:37;21.60;60.10
33564;DHT22;19894;48.452;11.494;2022-09-09T01:29:08;21.60;60.20
33564;DHT22;19894;48.452;11.494;2022-09-09T01:31:58;21.60;60.10
33564;DHT22;19894;48.452;11.494;2022-09-09T01:34:29;21.60;60.10
33564;DHT22;19894;48.452;11.494;2022-09-09T01:37:03;21.60;60.10
33564;DHT22;19894;48.452;11.494;2022-09-09T01:39:31;21.60;60.20
33564;DHT22;19894;48.452;11.494;2022-09-09T01:41:57;21.60;60.10
33564;DHT22;19894;48.452;11.494;2022-09-09T01:44:25;21.60;60.00
33564;DHT22;19894;48.452;11.494;2022-09-09T01:46:51;21.60;60.10
33564;DHT22;19894;48.452;11.494;2022-09-09T01:49:17;21.60;60.10
33564;DHT22;19894;48.452;11.494;2022-09-09T01:51:44;21.60;60.00
33564;DHT22;19894;48.452;11.494;2022-09-09T01:54:11;21.60;60.00
33564;DHT22;19894;48.452;11.494;2022-09-09T02:07:19;21.60;59.90
33564;DHT22;19894;48.452;11.494;2022-09-09T02:09:52;21.60;59.90
33564;DHT22;19894;48.452;11.494;2022-09-09T02:12:24;21.60;59.90
33564;DHT22;19894;48.452;11.494;2022-09-09T02:14:56;21.70;59.80
33564;DHT22;19894;48.452;11.494;2022-09-09T02:17:35;21.70;59.70
33564;DHT22;19894;48.452;11.494;2022-09-09T02:20:08;21.60;59.70
33564;DHT22;19894;48.452;11.494;2022-09-09T02:22:37;21.60;59.60
33564;DHT22;19894;48.452;11.494;2022-09-09T02:25:07;21.60;59.50
33564;DHT22;19894;48.452;11.494;2022-09-09T02:27:34;21.60;59.60
33564;DHT22;19894;48.452;11.494;2022-09-09T02:30:02;21.60;59.60
33564;DHT22;19894;48.452;11.494;2022-09-09T02:32:29;21.60;59.70
33564;DHT22;19894;48.452;11.494;2022-09-09T02:35:08;21.60;59.80
33564;DHT22;19894;48.452;11.494;2022-09-09T02:37:39;21.60;60.40
33564;DHT22;19894;48.452;11.494;2022-09-09T02:40:06;21.60;59.90
33564;DHT22;19894;48.452;11.494;2022-09-09T02:42:42;21.60;59.80
33564;DHT22;19894;48.452;11.494;2022-09-09T02:45:10;21.60;59.90
33564;DHT22;19894;48.452;11.494;2022-09-09T02:50:22;21.60;59.90
33564;DHT22;19894;48.452;11.494;2022-09-09T02:55:39;21.60;59.70
33564;DHT22;19894;48.452;11.494;2022-09-09T02:58:09;21.60;59.60
33564;DHT22;19894;48.452;11.494;2022-09-09T03:00:37;21.60;59.50
33564;DHT22;19894;48.452;11.494;2022-09-09T03:03:04;21.60;59.50
33564;DHT22;19894;48.452;11.494;2022-09-09T03:05:30;21.60;59.50
33564;DHT22;19894;48.452;11.494;2022-09-09T03:07:56;21.60;59.40
33564;DHT22;19894;48.452;11.494;2022-09-09T03:10:21;21.60;59.50
33564;DHT22;19894;48.452;11.494;2022-09-09T03:12:47;21.60;59.30
33564;DHT22;19894;48.452;11.494;2022-09-09T03:15:13;21.60;59.40
33564;DHT22;19894;48.452;11.494;2022-09-09T03:17:40;21.60;59.40
33564;DHT22;19894;48.452;11.494;2022-09-09T03:20:06;21.60;59.40
33564;DHT22;19894;48.452;11.494;2022-09-09T03:22:33;21.60;59.40
33564;DHT22;19894;48.452;11.494;2022-09-09T03:24:59;21.60;59.40
33564;DHT22;19894;48.452;11.494;2022-09-09T03:27:25;21.60;59.40
33564;DHT22;19894;48.452;11.494;2022-09-09T03:29:50;21.60;59.40
33564;DHT22;19894;48.452;11.494;2022-09-09T03:32:17;21.60;59.40
33564;DHT22;19894;48.452;11.494;2022-09-09T03:34:43;21.60;59.40
33564;DHT22;19894;48.452;11.494;2022-09-09T03:37:09;21.60;59.50
33564;DHT22;19894;48.452;11.494;2022-09-09T03:39:34;21.60;59.50
33564;DHT22;19894;48.452;11.494;2022-09-09T03:42:00;21.60;59.60
33564;DHT22;19894;48.452;11.494;2022-09-09T03:44:29;21.60;59.60
33564;DHT22;19894;48.452;11.494;2022-09-09T03:46:55;21.60;59.60
33564;DHT22;19894;48.452;11.494;2022-09-09T03:49:21;21.60;59.60
33564;DHT22;19894;48.452;11.494;2022-09-09T03:51:47;21.60;59.70
33564;DHT22;19894;48.452;11.494;2022-09-09T03:54:13;21.60;59.70
33564;DHT22;19894;48.452;11.494;2022-09-09T03:56:38;21.60;59.60
33564;DHT22;19894;48.452;11.494;2022-09-09T03:59:06;21.60;59.70
33564;DHT22;19894;48.452;11.494;2022-09-09T04:01:34;21.60;59.80
33564;DHT22;19894;48.452;11.494;2022-09-09T04:03:59;21.60;59.70
33564;DHT22;19894;48.452;11.494;2022-09-09T04:06:27;21.60;59.50
33564;DHT22;19894;48.452;11.494;2022-09-09T04:08:53;21.60;59.40
33564;DHT22;19894;48.452;11.494;2022-09-09T04:11:19;21.60;59.40
33564;DHT22;19894;48.452;11.494;2022-09-09T04:13:45;21.60;59.40
33564;DHT22;19894;48.452;11.494;2022-09-09T04:16:11;21.60;59.40
33564;DHT22;19894;48.452;11.494;2022-09-09T04:18:38;21.60;59.30
33564;DHT22;19894;48.452;11.494;2022-09-09T04:21:04;21.60;59.30
33564;DHT22;19894;48.452;11.494;2022-09-09T04:23:32;21.60;59.40
33564;DHT22;19894;48.452;11.494;2022-09-09T04:26:01;21.60;59.30
33564;DHT22;19894;48.452;11.494;2022-09-09T04:28:29;21.60;59.30
33564;DHT22;19894;48.452;11.494;2022-09-09T04:30:55;21.60;59.30
33564;DHT22;19894;48.452;11.494;2022-09-09T04:33:24;21.60;59.30
33564;DHT22;19894;48.452;11.494;2022-09-09T04:35:52;21.60;59.30
33564;DHT22;19894;48.452;11.494;2022-09-09T04:38:19;21.60;59.20
33564;DHT22;19894;48.452;11.494;2022-09-09T04:40:49;21.60;59.30
33564;DHT22;19894;48.452;11.494;2022-09-09T04:43:17;21.60;59.30
33564;DHT22;19894;48.452;11.494;2022-09-09T04:45:47;21.60;59.30
33564;DHT22;19894;48.452;11.494;2022-09-09T04:48:13;21.60;59.40
33564;DHT22;19894;48.452;11.494;2022-09-09T04:50:39;21.60;59.40
33564;DHT22;19894;48.452;11.494;2022-09-09T04:53:06;21.60;59.40
33564;DHT22;19894;48.452;11.494;2022-09-09T04:55:32;21.60;59.40
33564;DHT22;19894;48.452;11.494;2022-09-09T04:58:03;21.60;59.40
33564;DHT22;19894;48.452;11.494;2022-09-09T05:00:30;21.60;59.40
33564;DHT22;19894;48.452;11.494;2022-09-09T05:02:55;21.60;59.40
33564;DHT22;19894;48.452;11.494;2022-09-09T05:05:21;21.60;59.40
33564;DHT22;19894;48.452;11.494;2022-09-09T05:07:47;21.60;59.40
33564;DHT22;19894;48.452;11.494;2022-09-09T05:10:13;21.60;59.40
33564;DHT22;19894;48.452;11.494;2022-09-09T05:12:41;21.60;59.40
33564;DHT22;19894;48.452;11.494;2022-09-09T05:15:07;21.60;59.30
33564;DHT22;19894;48.452;11.494;2022-09-09T05:17:33;21.60;59.30
33564;DHT22;19894;48.452;11.494;2022-09-09T05:19:59;21.60;59.20
33564;DHT22;19894;48.452;11.494;2022-09-09T05:22:24;21.60;59.20
33564;DHT22;19894;48.452;11.494;2022-09-09T05:24:50;21.60;59.10
33564;DHT22;19894;48.452;11.494;2022-09-09T05:27:17;21.60;59.20
33564;DHT22;19894;48.452;11.494;2022-09-09T05:29:44;21.60;59.20
33564;DHT22;19894;48.452;11.494;2022-09-09T05:32:10;21.60;59.20
33564;DHT22;19894;48.452;11.494;2022-09-09T05:34:36;21.60;59.20
33564;DHT22;19894;48.452;11.494;2022-09-09T05:37:03;21.60;59.20
33564;DHT22;19894;48.452;11.494;2022-09-09T05:39:29;21.60;59.20
33564;DHT22;19894;48.452;11.494;2022-09-09T05:41:55;21.60;59.80
33564;DHT22;19894;48.452;11.494;2022-09-09T05:44:20;21.60;59.20
33564;DHT22;19894;48.452;11.494;2022-09-09T05:46:48;21.60;59.20
33564;DHT22;19894;48.452;11.494;2022-09-09T05:49:14;21.60;59.10
33564;DHT22;19894;48.452;11.494;2022-09-09T05:51:41;21.60;59.30
33564;DHT22;19894;48.452;11.494;2022-09-09T05:54:08;21.60;59.30
33564;DHT22;19894;48.452;11.494;2022-09-09T05:56:34;21.60;59.40
33564;DHT22;19894;48.452;11.494;2022-09-09T05:58:59;21.60;59.40
33564;DHT22;19894;48.452;11.494;2022-09-09T06:01:28;21.60;59.50
33564;DHT22;19894;48.452;11.494;2022-09-09T06:03:55;21.60;59.50
33564;DHT22;19894;48.452;11.494;2022-09-09T06:06:23;21.60;59.50
33564;DHT22;19894;48.452;11.494;2022-09-09T06:08:53;21.60;59.50
33564;DHT22;19894;48.452;11.494;2022-09-09T06:11:23;21.60;59.60
33564;DHT22;19894;48.452;11.494;2022-09-09T06:13:50;21.60;59.60
33564;DHT22;19894;48.452;11.494;2022-09-09T06:16:20;21.60;59.60
33564;DHT22;19894;48.452;11.494;2022-09-09T06:18:48;21.60;59.60
33564;DHT22;19894;48.452;11.494;2022-09-09T06:21:27;21.60;59.50
33564;DHT22;19894;48.452;11.494;2022-09-09T06:23:54;21.60;59.60
33564;DHT22;19894;48.452;11.494;2022-09-09T06:26:26;21.60;59.50
33564;DHT22;19894;48.452;11.494;2022-09-09T06:28:53;21.60;59.50
33564;DHT22;19894;48.452;11.494;2022-09-09T06:31:24;21.60;59.50
33564;DHT22;19894;48.452;11.494;2022-09-09T06:33:52;21.60;59.50
33564;DHT22;19894;48.452;11.494;2022-09-09T06:36:38;21.60;59.50
33564;DHT22;19894;48.452;11.494;2022-09-09T06:39:05;21.60;59.50
33564;DHT22;19894;48.452;11.494;2022-09-09T06:41:32;21.60;59.50
33564;DHT22;19894;48.452;11.494;2022-09-09T06:43:58;21.60;59.50
33564;DHT22;19894;48.452;11.494;2022-09-09T06:46:28;21.60;59.50
33564;DHT22;19894;48.452;11.494;2022-09-09T06:48:56;21.60;59.60
33564;DHT22;19894;48.452;11.494;2022-09-09T06:51:23;21.60;59.60
33564;DHT22;19894;48.452;11.494;2022-09-09T06:53:54;21.60;59.60
33564;DHT22;19894;48.452;11.494;2022-09-09T06:56:30;21.60;59.60
33564;DHT22;19894;48.452;11.494;2022-09-09T06:58:58;21.60;59.60
33564;DHT22;19894;48.452;11.494;2022-09-09T07:01:26;21.60;59.70
33564;DHT22;19894;48.452;11.494;2022-09-09T07:03:54;21.60;59.70
33564;DHT22;19894;48.452;11.494;2022-09-09T07:06:25;21.60;59.70
33564;DHT22;19894;48.452;11.494;2022-09-09T07:08:51;21.60;59.80
33564;DHT22;19894;48.452;11.494;2022-09-09T07:11:18;21.60;59.80
33564;DHT22;19894;48.452;11.494;2022-09-09T07:13:44;21.60;59.80
33564;DHT22;19894;48.452;11.494;2022-09-09T07:16:13;21.60;59.80
33564;DHT22;19894;48.452;11.494;2022-09-09T07:18:41;21.60;59.80
33564;DHT22;19894;48.452;11.494;2022-09-09T07:21:08;21.60;59.80
33564;DHT22;19894;48.452;11.494;2022-09-09T07:23:34;21.60;59.80
33564;DHT22;19894;48.452;11.494;2022-09-09T07:26:01;21.60;59.80
33564;DHT22;19894;48.452;11.494;2022-09-09T07:28:27;21.60;59.80
33564;DHT22;19894;48.452;11.494;2022-09-09T07:31:01;21.60;59.90
33564;DHT22;19894;48.452;11.494;2022-09-09T07:33:29;21.60;59.80
33564;DHT22;19894;48.452;11.494;2022-09-09T07:36:13;21.60;59.80
33564;DHT22;19894;48.452;11.494;2022-09-09T07:38:43;21.60;59.80
33564;DHT22;19894;48.452;11.494;2022-09-09T07:41:13;21.60;59.80
33564;DHT22;19894;48.452;11.494;2022-09-09T07:43:41;21.60;59.80
33564;DHT22;19894;48.452;11.494;2022-09-09T07:46:08;21.60;59.80
33564;DHT22;19894;48.452;11.494;2022-09-09T07:48:34;21.60;59.90
33564;DHT22;19894;48.452;11.494;2022-09-09T07:51:07;21.60;59.90
33564;DHT22;19894;48.452;11.494;2022-09-09T07:53:33;21.60;59.80
33564;DHT22;19894;48.452;11.494;2022-09-09T07:56:09;21.60;59.90
33564;DHT22;19894;48.452;11.494;2022-09-09T07:58:39;21.60;59.90
33564;DHT22;19894;48.452;11.494;2022-09-09T08:01:10;21.60;59.90
33564;DHT22;19894;48.452;11.494;2022-09-09T08:03:37;21.60;60.00
33564;DHT22;19894;48.452;11.494;2022-09-09T08:06:05;21.60;60.00
33564;DHT22;19894;48.452;11.494;2022-09-09T08:08:33;21.60;60.00
33564;DHT22;19894;48.452;11.494;2022-09-09T08:11:13;21.60;60.00
33564;DHT22;19894;48.452;11.494;2022-09-09T08:13:40;21.60;60.00
33564;DHT22;19894;48.452;11.494;2022-09-09T08:16:08;21.60;60.10
33564;DHT22;19894;48.452;11.494;2022-09-09T08:18:34;21.60;60.10
33564;DHT22;19894;48.452;11.494;2022-09-09T08:21:12;21.60;60.10
33564;DHT22;19894;48.452;11.494;2022-09-09T08:23:42;21.60;60.10
33564;DHT22;19894;48.452;11.494;2022-09-09T08:26:19;21.60;60.10
33564;DHT22;19894;48.452;11.494;2022-09-09T08:28:47;21.60;60.10
33564;DHT22;19894;48.452;11.494;2022-09-09T08:31:19;21.60;60.20
33564;DHT22;19894;48.452;11.494;2022-09-09T08:33:46;21.60;60.20
33564;DHT22;19894;48.452;11.494;2022-09-09T08:36:13;21.60;60.20
33564;DHT22;19894;48.452;11.494;2022-09-09T08:38:41;21.60;60.30
33564;DHT22;19894;48.452;11.494;2022-09-09T08:44:34;21.60;60.30
33564;DHT22;19894;48.452;11.494;2022-09-09T08:53:33;21.60;60.40
33564;DHT22;19894;48.452;11.494;2022-09-09T08:55:53;21.60;60.50
33564;DHT22;19894;48.452;11.494;2022-09-09T08:58:21;21.60;60.60
33564;DHT22;19894;48.452;11.494;2022-09-09T09:01:05;21.60;60.70
33564;DHT22;19894;48.452;11.494;2022-09-09T09:03:52;21.60;60.80
33564;DHT22;19894;48.452;11.494;2022-09-09T09:09:10;21.60;60.60
33564;DHT22;19894;48.452;11.494;2022-09-09T09:11:45;21.60;60.60
33564;DHT22;19894;48.452;11.494;2022-09-09T09:14:20;21.60;60.70
33564;DHT22;19894;48.452;11.494;2022-09-09T09:19:33;21.60;60.60
33564;DHT22;19894;48.452;11.494;2022-09-09T09:22:22;21.60;60.70
33564;DHT22;19894;48.452;11.494;2022-09-09T09:24:54;21.50;60.70
33564;DHT22;19894;48.452;11.494;2022-09-09T09:27:59;21.50;60.80
33564;DHT22;19894;48.452;11.494;2022-09-09T09:30:41;21.60;60.70
33564;DHT22;19894;48.452;11.494;2022-09-09T09:35:51;21.50;61.30
33564;DHT22;19894;48.452;11.494;2022-09-09T09:38:24;21.60;60.80
33564;DHT22;19894;48.452;11.494;2022-09-09T09:40:58;21.60;60.90
33564;DHT22;19894;48.452;11.494;2022-09-09T09:43:35;21.60;60.90
33564;DHT22;19894;48.452;11.494;2022-09-09T09:46:03;21.60;61.00
33564;DHT22;19894;48.452;11.494;2022-09-09T09:48:29;21.60;61.00
33564;DHT22;19894;48.452;11.494;2022-09-09T09:51:10;21.60;61.10
33564;DHT22;19894;48.452;11.494;2022-09-09T09:53:38;21.60;61.10
33564;DHT22;19894;48.452;11.494;2022-09-09T09:56:10;21.60;61.10
33564;DHT22;19894;48.452;11.494;2022-09-09T09:58:56;21.60;61.10
33564;DHT22;19894;48.452;11.494;2022-09-09T10:01:27;21.60;61.10
33564;DHT22;19894;48.452;11.494;2022-09-09T10:06:35;21.60;61.10
33564;DHT22;19894;48.452;11.494;2022-09-09T10:09:03;21.60;61.20
33564;DHT22;19894;48.452;11.494;2022-09-09T10:11:44;21.60;61.20
33564;DHT22;19894;48.452;11.494;2022-09-09T10:14:18;21.60;61.10
33564;DHT22;19894;48.452;11.494;2022-09-09T10:19:36;21.60;61.20
33564;DHT22;19894;48.452;11.494;2022-09-09T10:22:27;21.60;61.10
33564;DHT22;19894;48.452;11.494;2022-09-09T10:25:15;21.60;61.10
33564;DHT22;19894;48.452;11.494;2022-09-09T10:27:51;21.60;61.10
33564;DHT22;19894;48.452;11.494;2022-09-09T10:30:45;21.60;61.20
33564;DHT22;19894;48.452;11.494;2022-09-09T10:36:15;21.60;61.10
33564;DHT22;19894;48.452;11.494;2022-09-09T10:38:57;21.60;61.20
33564;DHT22;19894;48.452;11.494;2022-09-09T10:52:32;21.60;61.20
33564;DHT22;19894;48.452;11.494;2022-09-09T11:00:25;21.60;61.30
33564;DHT22;19894;48.452;11.494;2022-09-09T11:03:02;21.60;61.30
33564;DHT22;19894;48.452;11.494;2022-09-09T11:05:53;21.60;61.30
33564;DHT22;19894;48.452;11.494;2022-09-09T11:08:24;21.60;61.30
33564;DHT22;19894;48.452;11.494;2022-09-09T11:11:13;21.60;61.40
33564;DHT22;19894;48.452;11.494;2022-09-09T11:16:58;21.60;61.30
33564;DHT22;19894;48.452;11.494;2022-09-09T11:19:43;21.60;61.30
33564;DHT22;19894;48.452;11.494;2022-09-09T11:22:26;21.60;61.30
33564;DHT22;19894;48.452;11.494;2022-09-09T11:30:39;21.60;61.30
33564;DHT22;19894;48.452;11.494;2022-09-09T11:33:47;21.60;61.30
33564;DHT22;19894;48.452;11.494;2022-09-09T11:41:47;21.60;61.50
33564;DHT22;19894;48.452;11.494;2022-09-09T11:44:18;21.60;61.30
33564;DHT22;19894;48.452;11.494;2022-09-09T11:46:48;21.60;61.30
33564;DHT22;19894;48.452;11.494;2022-09-09T11:49:40;21.60;61.30
33564;DHT22;19894;48.452;11.494;2022-09-09T11:55:31;21.60;61.30
33564;DHT22;19894;48.452;11.494;2022-09-09T11:58:02;21.60;61.30
33564;DHT22;19894;48.452;11.494;2022-09-09T12:02:59;21.60;61.30
33564;DHT22;19894;48.452;11.494;2022-09-09T12:05:39;21.60;61.30
33564;DHT22;19894;48.452;11.494;2022-09-09T12:08:09;21.60;61.30
33564;DHT22;19894;48.452;11.494;2022-09-09T12:10:38;21.60;61.30
33564;DHT22;19894;48.452;11.494;2022-09-09T12:13:25;21.50;61.20
33564;DHT22;19894;48.452;11.494;2022-09-09T12:15:55;21.60;61.30
33564;DHT22;19894;48.452;11.494;2022-09-09T12:18:36;21.60;61.20
33564;DHT22;19894;48.452;11.494;2022-09-09T12:23:53;21.60;61.30
33564;DHT22;19894;48.452;11.494;2022-09-09T12:29:22;21.60;61.20
33564;DHT22;19894;48.452;11.494;2022-09-09T12:32:00;21.60;61.30
33564;DHT22;19894;48.452;11.494;2022-09-09T12:37:04;21.60;61.30
33564;DHT22;19894;48.452;11.494;2022-09-09T12:39:34;21.60;61.30
33564;DHT22;19894;48.452;11.494;2022-09-09T12:42:01;21.60;61.30
33564;DHT22;19894;48.452;11.494;2022-09-09T12:44:30;21.60;61.30
33564;DHT22;19894;48.452;11.494;2022-09-09T12:46:58;21.60;61.30
33564;DHT22;19894;48.452;11.494;2022-09-09T12:49:38;21.50;61.20
33564;DHT22;19894;48.452;11.494;2022-09-09T12:52:08;21.60;61.20
33564;DHT22;19894;48.452;11.494;2022-09-09T12:54:44;21.60;61.30
33564;DHT22;19894;48.452;11.494;2022-09-09T12:57:12;21.60;61.20
33564;DHT22;19894;48.452;11.494;2022-09-09T12:59:41;21.60;61.20
33564;DHT22;19894;48.452;11.494;2022-09-09T13:02:25;21.60;61.20
33564;DHT22;19894;48.452;11.494;2022-09-09T13:04:52;21.60;61.20
33564;DHT22;19894;48.452;11.494;2022-09-09T13:07:19;21.60;61.20
33564;DHT22;19894;48.452;11.494;2022-09-09T13:09:47;21.60;61.70
33564;DHT22;19894;48.452;11.494;2022-09-09T13:12:21;21.60;61.20
33564;DHT22;19894;48.452;11.494;2022-09-09T13:14:50;21.60;61.20
33564;DHT22;19894;48.452;11.494;2022-09-09T13:17:25;21.60;61.10
33564;DHT22;19894;48.452;11.494;2022-09-09T13:19:52;21.60;61.10
33564;DHT22;19894;48.452;11.494;2022-09-09T13:22:38;21.60;61.10
33564;DHT22;19894;48.452;11.494;2022-09-09T13:27:41;21.60;61.00
33564;DHT22;19894;48.452;11.494;2022-09-09T13:30:32;21.60;61.00
33564;DHT22;19894;48.452;11.494;2022-09-09T13:35:55;21.60;61.10
33564;DHT22;19894;48.452;11.494;2022-09-09T13:38:21;21.50;61.00
33564;DHT22;19894;48.452;11.494;2022-09-09T13:40:56;21.60;61.10
33564;DHT22;19894;48.452;11.494;2022-09-09T13:43:24;21.60;61.10
33564;DHT22;19894;48.452;11.494;2022-09-09T13:46:01;21.60;61.10
33564;DHT22;19894;48.452;11.494;2022-09-09T13:48:27;21.60;61.20
33564;DHT22;19894;48.452;11.494;2022-09-09T13:50:55;21.60;61.10
33564;DHT22;19894;48.452;11.494;2022-09-09T13:53:21;21.60;61.10
33564;DHT22;19894;48.452;11.494;2022-09-09T13:55:46;21.60;61.00
33564;DHT22;19894;48.452;11.494;2022-09-09T13:58:16;21.50;61.00
33564;DHT22;19894;48.452;11.494;2022-09-09T14:00:44;21.50;61.00
33564;DHT22;19894;48.452;11.494;2022-09-09T14:03:10;21.60;61.10
33564;DHT22;19894;48.452;11.494;2022-09-09T14:05:35;21.60;61.00
33564;DHT22;19894;48.452;11.494;2022-09-09T14:08:04;21.60;61.00
33564;DHT22;19894;48.452;11.494;2022-09-09T14:10:30;21.60;60.90
33564;DHT22;19894;48.452;11.494;2022-09-09T14:12:55;21.60;60.90
33564;DHT22;19894;48.452;11.494;2022-09-09T14:15:21;21.60;60.80
33564;DHT22;19894;48.452;11.494;2022-09-09T14:17:47;21.60;60.90
33564;DHT22;19894;48.452;11.494;2022-09-09T14:20:14;21.50;60.80
33564;DHT22;19894;48.452;11.494;2022-09-09T14:22:41;21.60;60.80
33564;DHT22;19894;48.452;11.494;2022-09-09T14:25:07;21.50;60.80
33564;DHT22;19894;48.452;11.494;2022-09-09T14:27:32;21.60;60.80
33564;DHT22;19894;48.452;11.494;2022-09-09T14:29:58;21.60;60.80
33564;DHT22;19894;48.452;11.494;2022-09-09T14:32:26;21.60;60.90
33564;DHT22;19894;48.452;11.494;2022-09-09T14:34:52;21.60;60.80
33564;DHT22;19894;48.452;11.494;2022-09-09T14:37:18;21.60;60.80
33564;DHT22;19894;48.452;11.494;2022-09-09T14:39:44;21.50;60.80
33564;DHT22;19894;48.452;11.494;2022-09-09T14:42:13;21.60;60.90
33564;DHT22;19894;48.452;11.494;2022-09-09T14:44:39;21.60;60.90
33564;DHT22;19894;48.452;11.494;2022-09-09T14:47:06;21.60;60.90
33564;DHT22;19894;48.452;11.494;2022-09-09T14:49:33;21.60;60.90
33564;DHT22;19894;48.452;11.494;2022-09-09T14:51:59;21.60;60.80
33564;DHT22;19894;48.452;11.494;2022-09-09T14:54:25;21.60;60.90
33564;DHT22;19894;48.452;11.494;2022-09-09T14:56:50;21.60;60.80
33564;DHT22;19894;48.452;11.494;2022-09-09T14:59:16;21.60;61.30
33564;DHT22;19894;48.452;11.494;2022-09-09T15:01:41;21.60;60.80
33564;DHT22;19894;48.452;11.494;2022-09-09T15:04:07;21.60;60.70
33564;DHT22;19894;48.452;11.494;2022-09-09T15:06:34;21.60;60.70
33564;DHT22;19894;48.452;11.494;2022-09-09T15:09:02;21.60;60.70
33564;DHT22;19894;48.452;11.494;2022-09-09T15:11:30;21.60;60.60
33564;DHT22;19894;48.452;11.494;2022-09-09T15:13:57;21.60;60.60
33564;DHT22;19894;48.452;11.494;2022-09-09T15:16:25;21.60;60.50
33564;DHT22;19894;48.452;11.494;2022-09-09T15:18:55;21.60;60.50
33564;DHT22;19894;48.452;11.494;2022-09-09T15:21:23;21.60;60.50
33564;DHT22;19894;48.452;11.494;2022-09-09T15:23:49;21.60;60.50
33564;DHT22;19894;48.452;11.494;2022-09-09T15:26:15;21.60;60.50
33564;DHT22;19894;48.452;11.494;2022-09-09T15:28:43;21.60;60.50
33564;DHT22;19894;48.452;11.494;2022-09-09T15:31:35;21.60;60.40
33564;DHT22;19894;48.452;11.494;2022-09-09T15:34:03;21.60;60.40
33564;DHT22;19894;48.452;11.494;2022-09-09T15:36:35;21.60;60.30
33564;DHT22;19894;48.452;11.494;2022-09-09T15:39:04;21.60;60.30
33564;DHT22;19894;48.452;11.494;2022-09-09T15:41:30;21.60;60.20
33564;DHT22;19894;48.452;11.494;2022-09-09T15:43:59;21.60;60.10
33564;DHT22;19894;48.452;11.494;2022-09-09T15:46:33;21.60;60.10
33564;DHT22;19894;48.452;11.494;2022-09-09T15:49:12;21.50;60.20
33564;DHT22;19894;48.452;11.494;2022-09-09T15:51:41;21.60;60.30
33564;DHT22;19894;48.452;11.494;2022-09-09T15:54:09;21.50;60.40
33564;DHT22;19894;48.452;11.494;2022-09-09T15:56:34;21.60;60.40
33564;DHT22;19894;48.452;11.494;2022-09-09T15:59:01;21.60;60.50
33564;DHT22;19894;48.452;11.494;2022-09-09T16:01:29;21.60;60.50
33564;DHT22;19894;48.452;11.494;2022-09-09T16:03:56;21.50;60.40
33564;DHT22;19894;48.452;11.494;2022-09-09T16:06:23;21.50;60.50
33564;DHT22;19894;48.452;11.494;2022-09-09T16:08:51;21.60;60.50
33564;DHT22;19894;48.452;11.494;2022-09-09T16:11:25;21.60;60.50
33564;DHT22;19894;48.452;11.494;2022-09-09T16:13:52;21.60;60.50
33564;DHT22;19894;48.452;11.494;2022-09-09T16:16:20;21.60;60.40
33564;DHT22;19894;48.452;11.494;2022-09-09T16:18:52;21.50;60.40
33564;DHT22;19894;48.452;11.494;2022-09-09T16:21:25;21.60;60.50
33564;DHT22;19894;48.452;11.494;2022-09-09T16:23:52;21.60;60.50
33564;DHT22;19894;48.452;11.494;2022-09-09T16:26:21;21.60;60.50
33564;DHT22;19894;48.452;11.494;2022-09-09T16:28:46;21.60;60.50
33564;DHT22;19894;48.452;11.494;2022-09-09T16:31:20;21.60;60.50
33564;DHT22;19894;48.452;11.494;2022-09-09T16:33:47;21.60;60.50
33564;DHT22;19894;48.452;11.494;2022-09-09T16:36:16;21.50;60.50
33564;DHT22;19894;48.452;11.494;2022-09-09T16:38:42;21.50;60.50
33564;DHT22;19894;48.452;11.494;2022-09-09T16:41:09;21.60;60.80
33564;DHT22;19894;48.452;11.494;2022-09-09T16:43:35;21.60;60.60
33564;DHT22;19894;48.452;11.494;2022-09-09T16:46:11;21.50;60.60
33564;DHT22;19894;48.452;11.494;2022-09-09T16:48:37;21.60;60.60
33564;DHT22;19894;48.452;11.494;2022-09-09T16:51:08;21.50;60.60
33564;DHT22;19894;48.452;11.494;2022-09-09T16:53:36;21.50;60.60
33564;DHT22;19894;48.452;11.494;2022-09-09T16:56:05;21.50;60.60
33564;DHT22;19894;48.452;11.494;2022-09-09T16:58:31;21.50;60.60
33564;DHT22;19894;48.452;11.494;2022-09-09T17:01:01;21.60;60.70
33564;DHT22;19894;48.452;11.494;2022-09-09T17:03:28;21.50;60.70
33564;DHT22;19894;48.452;11.494;2022-09-09T17:05:54;21.50;60.70
33564;DHT22;19894;48.452;11.494;2022-09-09T17:08:20;21.50;60.70
33564;DHT22;19894;48.452;11.494;2022-09-09T17:10:46;21.60;60.70
33564;DHT22;19894;48.452;11.494;2022-09-09T17:13:13;21.60;60.60
33564;DHT22;19894;48.452;11.494;2022-09-09T17:15:40;21.60;60.50
33564;DHT22;19894;48.452;11.494;2022-09-09T17:18:08;21.60;60.50
33564;DHT22;19894;48.452;11.494;2022-09-09T17:20:41;21.70;60.50
33564;DHT22;19894;48.452;11.494;2022-09-09T17:23:08;21.70;60.50
33564;DHT22;19894;48.452;11.494;2022-09-09T17:25:35;21.70;60.40